CheckWX is a tool to help pilots better visualize weather data.  It is not intended as a substitute for an official pre-flight weather briefing.

12:26:05 UTC

SBSC TAF
Santa Cruz Airport
Rio De Janeiro, Brazil
TAF SBSC 220130Z 2206/2218 23009KT 5000 BR SCT007 OVC030 TN20/2209Z TX25/2217Z BECMG 2207/2209 4000 RA BR SCT005 BKN013 BECMG 2212/2214 9999 NSW SCT020 BECMG 2215/2217 14010KT RMK PEB

Mar-22@
06:00 UTC

Mar-22 @ 06:00 UTC

Mar-22@
07:00 UTC

Mar-22 @ 07:00 UTC

TAF SBSC 220130Z 2206/2218 23009KT 5000 BR SCT007 OVC030 TN20/2209Z TX25/2217Z

Expired

Wind
  • 230° at 9 KTS
Conditions
Mist
Cloud Levels
  • Scattered at 700' AGL
  • Overcast at 3,000' AGL

Mar-22@
07:00 UTC

Mar-22 @ 07:00 UTC

Mar-22@
12:00 UTC

Mar-22 @ 12:00 UTC

BECMG 2207/2209 4000 RA BR SCT005 BKN013

Expired

Wind
  • 230° at 9 KTS
Conditions
Rain, Mist
Cloud Levels
  • Scattered at 500' AGL
  • Broken at 1,300' AGL

Mar-22@
12:00 UTC

Mar-22 @ 12:00 UTC

Mar-22@
15:00 UTC

Mar-22 @ 15:00 UTC

BECMG 2212/2214 9999 NSW SCT020

Becoming

Becoming Conditions expected by Fri, Mar 22, 2019 @ 14:00 UTC

Wind
  • 230° at 9 KTS
Conditions
No significant weather
Cloud Levels
  • Scattered at 2,000' AGL

Mar-22@
15:00 UTC

Mar-22 @ 15:00 UTC

Mar-22@
18:00 UTC

Mar-22 @ 18:00 UTC

BECMG 2215/2217 14010KT RMK PEB

Becoming

Becoming Conditions expected by Fri, Mar 22, 2019 @ 17:00 UTC

Wind
  • 140° at 10 KTS
Conditions
No significant weather
Cloud Levels
  • Scattered at 2,000' AGL